Quartz Hill, CA (93536)

7:37 AM PDT on July 23, 2016 (GMT -0700)
Sandear Ranch | | Change Station
Active Advisory: Fire Weather Warning

Elev 2887 ft 34.80 °N, 118.58 °W | Updated 14 seconds ago

Clear
Clear
80.2 °F
Feels Like 80.2 °F
N
6.0
Wind Variable Wind from West
Gusts 14.0 mph

Today
High -- | Low -- °F
--% Chance of Precip.
Yesterday
High -- | Low -- °F
Precip. -- in
Pressure 29.90 in
Visibility 10.0 miles
Clouds Clear
Dew Point 39.1 °F
Humidity 23%
Rainfall 0.00 in
Snow Depth Not available.
5:56 AM 8:01 PM
Waning Gibbous, 85% visible
METAR KWJF 231356Z 00000KT 10SM CLR 24/02 A2996 RMK AO2 SLP123 T02390022
Pressure 29.90 in
Visibility 10.0 miles
Clouds Clear
Dew Point 39.1 °F
Humidity 23%
Rainfall 0.00 in
Snow Depth Not available.
5:56 AM 8:01 PM
Waning Gibbous, 85% visible
METAR KWJF 231356Z 00000KT 10SM CLR 24/02 A2996 RMK AO2 SLP123 T02390022

10-Day Weather Forecast

Almanac

Astronomy

Jul. 23, 2016 Rise Set
Actual Time
Civil Twilight
Nautical Twilight
Astronomical Twilight
Moon
Length of Visible Light
Length of Day
Tomorrow will be .
, % of the Moon is Illuminated

Today's Extremes

State Highs State Lows

Community

WunderPhotos

Upload Photos

1,926,825 photos uploaded!

WunderBlog® & News

Nearby

Air Quality

  Air Quality AQ Index Pollutant
Not available.

Snow Depth

Station Depth Elevation

Earthquake Activity

City Distance Mag. Time & Date
Minimum magnitude displayed is 2.5.

Coastal Water Temperatures

Place Temperature

Stations

Nearby Weather Stations

Station Location Temp. Windchill Dew Point Humidity Wind Precip. Elev Updated Type
                   

Watches & Warnings

Fire Weather Warning
Issued: 3:37 PM PDT Jul. 22, 2016 – National Weather Service

... Red flag warning in effect until midnight PDT Saturday night
for gusty west to northwest winds and very low relative humidity
for the Santa Clarita valley and Antelope Valley...

* winds... west to northwest winds increasing to 15 to 30 mph with
gusts to 40 mph in the afternoon and evening. Isolated gusts to
45 mph across western foothills. Gusty southwest to west winds
redeveloping Saturday afternoon and evening.

* Relative humidity... minimum humidities 2 to 7 percent. Very poor
recovery tonight with humidities remaining between 10 and 15
percent.

* Temperatures... Max temperatures of 104 to 110 degrees.

* Impacts... if fire ignition occurs there could be rapid spread
of wildfire that would lead to a threat to life and property.

Precautionary/preparedness actions...

A red flag warning means that critical fire weather conditions
are expected. This in combination with very dry fuels will create
extreme fire danger and/or fire behavior.

Please advise the appropriate officials or fire crews in the
field of this red flag warning.



Gomberg/Kaplan